sensor_id;sensor_type;location;lat;lon;timestamp;P1;durP1;ratioP1;P2;durP2;ratioP2
22476;SDS011;11405;51.698;-0.292;2022-08-03T00:01:16;9.32;;;2.10;;
22476;SDS011;11405;51.698;-0.292;2022-08-03T00:03:42;12.25;;;1.80;;
22476;SDS011;11405;51.698;-0.292;2022-08-03T00:06:08;7.28;;;1.63;;
22476;SDS011;11405;51.698;-0.292;2022-08-03T00:08:34;9.93;;;1.60;;
22476;SDS011;11405;51.698;-0.292;2022-08-03T00:11:00;11.63;;;1.90;;
22476;SDS011;11405;51.698;-0.292;2022-08-03T00:13:26;5.55;;;1.75;;
22476;SDS011;11405;51.698;-0.292;2022-08-03T00:15:52;7.15;;;1.60;;
22476;SDS011;11405;51.698;-0.292;2022-08-03T00:18:19;13.25;;;1.90;;
22476;SDS011;11405;51.698;-0.292;2022-08-03T00:20:45;14.88;;;2.58;;
22476;SDS011;11405;51.698;-0.292;2022-08-03T00:23:12;11.77;;;2.15;;
22476;SDS011;11405;51.698;-0.292;2022-08-03T00:25:38;7.30;;;1.75;;
22476;SDS011;11405;51.698;-0.292;2022-08-03T00:28:04;7.50;;;2.00;;
22476;SDS011;11405;51.698;-0.292;2022-08-03T00:30:31;6.55;;;1.48;;
22476;SDS011;11405;51.698;-0.292;2022-08-03T00:32:57;6.00;;;1.75;;
22476;SDS011;11405;51.698;-0.292;2022-08-03T00:35:23;11.18;;;2.13;;
22476;SDS011;11405;51.698;-0.292;2022-08-03T00:37:50;12.23;;;1.30;;
22476;SDS011;11405;51.698;-0.292;2022-08-03T00:40:16;8.52;;;2.10;;
22476;SDS011;11405;51.698;-0.292;2022-08-03T00:42:56;10.15;;;1.63;;
22476;SDS011;11405;51.698;-0.292;2022-08-03T00:45:23;10.52;;;1.85;;
22476;SDS011;11405;51.698;-0.292;2022-08-03T00:47:49;7.18;;;1.63;;
22476;SDS011;11405;51.698;-0.292;2022-08-03T00:50:15;8.27;;;1.98;;
22476;SDS011;11405;51.698;-0.292;2022-08-03T00:55:08;8.93;;;1.83;;
22476;SDS011;11405;51.698;-0.292;2022-08-03T00:57:35;5.75;;;1.77;;
22476;SDS011;11405;51.698;-0.292;2022-08-03T01:00:01;7.95;;;1.80;;
22476;SDS011;11405;51.698;-0.292;2022-08-03T01:02:27;5.50;;;1.92;;
22476;SDS011;11405;51.698;-0.292;2022-08-03T01:04:54;6.32;;;1.80;;
22476;SDS011;11405;51.698;-0.292;2022-08-03T01:07:32;7.53;;;1.85;;
22476;SDS011;11405;51.698;-0.292;2022-08-03T01:10:04;7.93;;;1.80;;
22476;SDS011;11405;51.698;-0.292;2022-08-03T01:12:51;5.63;;;1.50;;
22476;SDS011;11405;51.698;-0.292;2022-08-03T01:20:36;6.55;;;1.40;;
22476;SDS011;11405;51.698;-0.292;2022-08-03T01:25:59;14.30;;;2.00;;
22476;SDS011;11405;51.698;-0.292;2022-08-03T01:29:14;6.80;;;2.25;;
22476;SDS011;11405;51.698;-0.292;2022-08-03T01:31:14;9.10;;;1.55;;
22476;SDS011;11405;51.698;-0.292;2022-08-03T01:33:42;2.30;;;1.25;;
22476;SDS011;11405;51.698;-0.292;2022-08-03T01:36:09;3.95;;;1.20;;
22476;SDS011;11405;51.698;-0.292;2022-08-03T01:38:42;10.48;;;1.77;;
22476;SDS011;11405;51.698;-0.292;2022-08-03T01:41:14;16.08;;;1.80;;
22476;SDS011;11405;51.698;-0.292;2022-08-03T01:43:43;13.13;;;2.28;;
22476;SDS011;11405;51.698;-0.292;2022-08-03T01:46:12;6.32;;;1.70;;
22476;SDS011;11405;51.698;-0.292;2022-08-03T01:48:39;3.33;;;1.35;;
22476;SDS011;11405;51.698;-0.292;2022-08-03T01:51:07;6.78;;;2.47;;
22476;SDS011;11405;51.698;-0.292;2022-08-03T01:53:33;5.18;;;1.48;;
22476;SDS011;11405;51.698;-0.292;2022-08-03T01:56:00;7.57;;;1.40;;
22476;SDS011;11405;51.698;-0.292;2022-08-03T01:58:27;7.40;;;1.92;;
22476;SDS011;11405;51.698;-0.292;2022-08-03T02:00:54;9.93;;;1.80;;
22476;SDS011;11405;51.698;-0.292;2022-08-03T02:03:23;7.43;;;2.00;;
22476;SDS011;11405;51.698;-0.292;2022-08-03T02:05:49;9.60;;;2.25;;
22476;SDS011;11405;51.698;-0.292;2022-08-03T02:08:15;5.25;;;1.58;;
22476;SDS011;11405;51.698;-0.292;2022-08-03T02:10:44;6.97;;;1.05;;
22476;SDS011;11405;51.698;-0.292;2022-08-03T02:13:11;9.70;;;1.70;;
22476;SDS011;11405;51.698;-0.292;2022-08-03T02:15:38;4.25;;;1.42;;
22476;SDS011;11405;51.698;-0.292;2022-08-03T02:18:04;7.93;;;1.35;;
22476;SDS011;11405;51.698;-0.292;2022-08-03T02:20:32;8.40;;;1.55;;
22476;SDS011;11405;51.698;-0.292;2022-08-03T02:23:01;6.43;;;1.55;;
22476;SDS011;11405;51.698;-0.292;2022-08-03T02:25:27;4.18;;;1.80;;
22476;SDS011;11405;51.698;-0.292;2022-08-03T02:27:55;4.80;;;1.13;;
22476;SDS011;11405;51.698;-0.292;2022-08-03T02:30:24;7.13;;;1.38;;
22476;SDS011;11405;51.698;-0.292;2022-08-03T02:32:53;8.52;;;1.30;;
22476;SDS011;11405;51.698;-0.292;2022-08-03T02:35:21;7.00;;;1.33;;
22476;SDS011;11405;51.698;-0.292;2022-08-03T02:37:50;3.38;;;0.88;;
22476;SDS011;11405;51.698;-0.292;2022-08-03T02:40:16;5.00;;;1.35;;
22476;SDS011;11405;51.698;-0.292;2022-08-03T02:45:09;8.10;;;1.17;;
22476;SDS011;11405;51.698;-0.292;2022-08-03T02:47:37;9.43;;;1.42;;
22476;SDS011;11405;51.698;-0.292;2022-08-03T02:50:05;9.57;;;1.08;;
22476;SDS011;11405;51.698;-0.292;2022-08-03T02:52:32;6.63;;;1.20;;
22476;SDS011;11405;51.698;-0.292;2022-08-03T02:54:59;6.97;;;1.42;;
22476;SDS011;11405;51.698;-0.292;2022-08-03T02:57:26;5.32;;;1.80;;
22476;SDS011;11405;51.698;-0.292;2022-08-03T02:59:52;6.70;;;1.10;;
22476;SDS011;11405;51.698;-0.292;2022-08-03T03:04:45;5.70;;;1.10;;
22476;SDS011;11405;51.698;-0.292;2022-08-03T03:07:12;11.18;;;1.33;;
22476;SDS011;11405;51.698;-0.292;2022-08-03T03:09:38;10.63;;;1.40;;
22476;SDS011;11405;51.698;-0.292;2022-08-03T03:12:06;2.25;;;0.93;;
22476;SDS011;11405;51.698;-0.292;2022-08-03T03:14:33;3.50;;;0.95;;
22476;SDS011;11405;51.698;-0.292;2022-08-03T03:17:00;8.25;;;0.98;;
22476;SDS011;11405;51.698;-0.292;2022-08-03T03:19:26;5.45;;;0.95;;
22476;SDS011;11405;51.698;-0.292;2022-08-03T03:21:52;1.95;;;0.70;;
22476;SDS011;11405;51.698;-0.292;2022-08-03T03:24:20;4.25;;;1.23;;
22476;SDS011;11405;51.698;-0.292;2022-08-03T03:26:46;3.00;;;1.33;;
22476;SDS011;11405;51.698;-0.292;2022-08-03T03:29:13;6.75;;;1.23;;
22476;SDS011;11405;51.698;-0.292;2022-08-03T03:34:05;3.40;;;1.10;;
22476;SDS011;11405;51.698;-0.292;2022-08-03T03:36:31;7.93;;;1.10;;
22476;SDS011;11405;51.698;-0.292;2022-08-03T03:38:57;4.55;;;1.38;;
22476;SDS011;11405;51.698;-0.292;2022-08-03T03:41:23;7.18;;;1.10;;
22476;SDS011;11405;51.698;-0.292;2022-08-03T03:43:49;9.88;;;1.40;;
22476;SDS011;11405;51.698;-0.292;2022-08-03T03:46:15;8.32;;;1.40;;
22476;SDS011;11405;51.698;-0.292;2022-08-03T03:48:41;3.45;;;1.10;;
22476;SDS011;11405;51.698;-0.292;2022-08-03T03:51:08;2.67;;;1.02;;
22476;SDS011;11405;51.698;-0.292;2022-08-03T03:53:34;6.07;;;1.00;;
22476;SDS011;11405;51.698;-0.292;2022-08-03T03:56:00;7.32;;;1.00;;
22476;SDS011;11405;51.698;-0.292;2022-08-03T03:58:26;1.83;;;0.80;;
22476;SDS011;11405;51.698;-0.292;2022-08-03T04:00:52;5.25;;;1.40;;
22476;SDS011;11405;51.698;-0.292;2022-08-03T04:03:18;5.60;;;1.52;;
22476;SDS011;11405;51.698;-0.292;2022-08-03T04:05:44;5.20;;;1.15;;
22476;SDS011;11405;51.698;-0.292;2022-08-03T04:08:29;5.25;;;1.27;;
22476;SDS011;11405;51.698;-0.292;2022-08-03T04:11:21;7.28;;;1.30;;
22476;SDS011;11405;51.698;-0.292;2022-08-03T04:13:53;5.22;;;1.00;;
22476;SDS011;11405;51.698;-0.292;2022-08-03T04:16:21;6.82;;;1.40;;
22476;SDS011;11405;51.698;-0.292;2022-08-03T04:18:52;6.90;;;1.13;;
22476;SDS011;11405;51.698;-0.292;2022-08-03T04:21:20;2.88;;;0.73;;
22476;SDS011;11405;51.698;-0.292;2022-08-03T04:23:47;3.00;;;1.02;;
22476;SDS011;11405;51.698;-0.292;2022-08-03T04:26:15;11.82;;;1.27;;
22476;SDS011;11405;51.698;-0.292;2022-08-03T04:28:42;3.92;;;1.60;;
22476;SDS011;11405;51.698;-0.292;2022-08-03T04:31:10;5.05;;;1.27;;
22476;SDS011;11405;51.698;-0.292;2022-08-03T04:33:37;8.65;;;1.55;;
22476;SDS011;11405;51.698;-0.292;2022-08-03T04:36:05;7.75;;;1.15;;
22476;SDS011;11405;51.698;-0.292;2022-08-03T04:38:35;2.97;;;0.85;;
22476;SDS011;11405;51.698;-0.292;2022-08-03T04:41:01;3.53;;;1.13;;
22476;SDS011;11405;51.698;-0.292;2022-08-03T04:43:28;2.25;;;0.90;;
22476;SDS011;11405;51.698;-0.292;2022-08-03T04:45:55;5.38;;;0.98;;
22476;SDS011;11405;51.698;-0.292;2022-08-03T04:48:21;9.07;;;1.10;;
22476;SDS011;11405;51.698;-0.292;2022-08-03T04:50:47;4.35;;;1.05;;
22476;SDS011;11405;51.698;-0.292;2022-08-03T04:53:13;5.10;;;1.42;;
22476;SDS011;11405;51.698;-0.292;2022-08-03T04:55:41;7.00;;;0.93;;
22476;SDS011;11405;51.698;-0.292;2022-08-03T04:58:08;2.25;;;0.85;;
22476;SDS011;11405;51.698;-0.292;2022-08-03T05:00:34;5.80;;;1.25;;
22476;SDS011;11405;51.698;-0.292;2022-08-03T05:03:00;5.13;;;1.58;;
22476;SDS011;11405;51.698;-0.292;2022-08-03T05:05:26;5.90;;;1.13;;
22476;SDS011;11405;51.698;-0.292;2022-08-03T05:07:52;2.75;;;1.05;;
22476;SDS011;11405;51.698;-0.292;2022-08-03T05:10:18;4.60;;;0.93;;
22476;SDS011;11405;51.698;-0.292;2022-08-03T05:12:44;2.83;;;0.80;;
22476;SDS011;11405;51.698;-0.292;2022-08-03T05:15:11;10.60;;;1.20;;
22476;SDS011;11405;51.698;-0.292;2022-08-03T05:17:37;4.78;;;0.80;;
22476;SDS011;11405;51.698;-0.292;2022-08-03T05:20:03;2.58;;;0.60;;
22476;SDS011;11405;51.698;-0.292;2022-08-03T05:22:29;2.58;;;1.15;;
22476;SDS011;11405;51.698;-0.292;2022-08-03T05:24:55;8.55;;;1.45;;
22476;SDS011;11405;51.698;-0.292;2022-08-03T05:27:21;1.08;;;0.70;;
22476;SDS011;11405;51.698;-0.292;2022-08-03T05:29:48;5.85;;;1.25;;
22476;SDS011;11405;51.698;-0.292;2022-08-03T05:32:15;9.25;;;1.30;;
22476;SDS011;11405;51.698;-0.292;2022-08-03T05:34:42;5.90;;;0.90;;
22476;SDS011;11405;51.698;-0.292;2022-08-03T05:37:08;7.43;;;1.00;;
22476;SDS011;11405;51.698;-0.292;2022-08-03T05:39:34;1.70;;;0.82;;
22476;SDS011;11405;51.698;-0.292;2022-08-03T05:42:01;10.77;;;0.88;;
22476;SDS011;11405;51.698;-0.292;2022-08-03T05:44:27;0.57;;;0.50;;
22476;SDS011;11405;51.698;-0.292;2022-08-03T05:46:53;7.25;;;1.20;;
22476;SDS011;11405;51.698;-0.292;2022-08-03T05:49:19;0.77;;;0.45;;
22476;SDS011;11405;51.698;-0.292;2022-08-03T05:51:45;2.85;;;0.82;;
22476;SDS011;11405;51.698;-0.292;2022-08-03T05:54:11;3.15;;;0.70;;
22476;SDS011;11405;51.698;-0.292;2022-08-03T05:56:37;3.60;;;0.90;;
22476;SDS011;11405;51.698;-0.292;2022-08-03T05:59:06;4.28;;;0.93;;
22476;SDS011;11405;51.698;-0.292;2022-08-03T06:01:32;0.73;;;0.50;;
22476;SDS011;11405;51.698;-0.292;2022-08-03T06:03:58;2.17;;;0.60;;
22476;SDS011;11405;51.698;-0.292;2022-08-03T06:06:24;2.33;;;1.17;;
22476;SDS011;11405;51.698;-0.292;2022-08-03T06:08:50;3.22;;;0.40;;
22476;SDS011;11405;51.698;-0.292;2022-08-03T06:11:17;4.93;;;0.88;;
22476;SDS011;11405;51.698;-0.292;2022-08-03T06:13:43;1.10;;;0.70;;
22476;SDS011;11405;51.698;-0.292;2022-08-03T06:16:09;3.47;;;0.80;;
22476;SDS011;11405;51.698;-0.292;2022-08-03T06:18:35;3.88;;;0.50;;
22476;SDS011;11405;51.698;-0.292;2022-08-03T06:21:02;3.05;;;0.50;;
22476;SDS011;11405;51.698;-0.292;2022-08-03T06:23:28;2.20;;;0.40;;
22476;SDS011;11405;51.698;-0.292;2022-08-03T06:25:54;6.35;;;0.55;;
22476;SDS011;11405;51.698;-0.292;2022-08-03T06:28:20;2.00;;;0.40;;
22476;SDS011;11405;51.698;-0.292;2022-08-03T06:30:46;3.35;;;1.00;;
22476;SDS011;11405;51.698;-0.292;2022-08-03T06:33:12;1.95;;;0.63;;
22476;SDS011;11405;51.698;-0.292;2022-08-03T06:35:39;3.05;;;0.70;;
22476;SDS011;11405;51.698;-0.292;2022-08-03T06:38:05;0.57;;;0.30;;
22476;SDS011;11405;51.698;-0.292;2022-08-03T06:40:31;5.25;;;0.55;;
22476;SDS011;11405;51.698;-0.292;2022-08-03T06:43:03;2.78;;;0.50;;
22476;SDS011;11405;51.698;-0.292;2022-08-03T06:45:29;3.17;;;0.65;;
22476;SDS011;11405;51.698;-0.292;2022-08-03T06:48:06;1.33;;;0.30;;
22476;SDS011;11405;51.698;-0.292;2022-08-03T06:50:32;3.63;;;0.70;;
22476;SDS011;11405;51.698;-0.292;2022-08-03T06:55:25;2.47;;;0.73;;
22476;SDS011;11405;51.698;-0.292;2022-08-03T06:57:51;2.00;;;0.43;;
22476;SDS011;11405;51.698;-0.292;2022-08-03T07:00:17;3.58;;;0.68;;
22476;SDS011;11405;51.698;-0.292;2022-08-03T07:02:43;1.20;;;0.52;;
22476;SDS011;11405;51.698;-0.292;2022-08-03T07:05:10;2.92;;;0.60;;
22476;SDS011;11405;51.698;-0.292;2022-08-03T07:07:37;4.95;;;0.75;;
22476;SDS011;11405;51.698;-0.292;2022-08-03T07:10:04;1.95;;;0.70;;
22476;SDS011;11405;51.698;-0.292;2022-08-03T07:14:57;4.03;;;0.52;;
22476;SDS011;11405;51.698;-0.292;2022-08-03T07:17:23;3.45;;;0.60;;
22476;SDS011;11405;51.698;-0.292;2022-08-03T07:19:49;2.25;;;0.43;;
22476;SDS011;11405;51.698;-0.292;2022-08-03T07:22:15;0.35;;;0.30;;
22476;SDS011;11405;51.698;-0.292;2022-08-03T07:24:41;0.93;;;0.40;;
22476;SDS011;11405;51.698;-0.292;2022-08-03T07:27:08;2.10;;;0.32;;
22476;SDS011;11405;51.698;-0.292;2022-08-03T07:29:34;7.60;;;0.50;;
22476;SDS011;11405;51.698;-0.292;2022-08-03T07:32:01;2.00;;;0.50;;
22476;SDS011;11405;51.698;-0.292;2022-08-03T07:34:27;0.85;;;0.35;;
22476;SDS011;11405;51.698;-0.292;2022-08-03T07:36:54;1.55;;;0.50;;
22476;SDS011;11405;51.698;-0.292;2022-08-03T07:41:46;0.55;;;0.40;;
22476;SDS011;11405;51.698;-0.292;2022-08-03T07:44:15;1.17;;;0.40;;
22476;SDS011;11405;51.698;-0.292;2022-08-03T07:46:41;1.38;;;0.40;;
22476;SDS011;11405;51.698;-0.292;2022-08-03T07:49:07;1.67;;;0.47;;
22476;SDS011;11405;51.698;-0.292;2022-08-03T07:51:33;4.65;;;0.60;;
22476;SDS011;11405;51.698;-0.292;2022-08-03T07:53:59;1.63;;;0.60;;
22476;SDS011;11405;51.698;-0.292;2022-08-03T07:56:26;3.95;;;0.57;;
22476;SDS011;11405;51.698;-0.292;2022-08-03T07:58:53;1.52;;;0.40;;
22476;SDS011;11405;51.698;-0.292;2022-08-03T08:01:19;0.68;;;0.40;;
22476;SDS011;11405;51.698;-0.292;2022-08-03T08:03:46;1.23;;;0.50;;
22476;SDS011;11405;51.698;-0.292;2022-08-03T08:06:12;1.92;;;0.40;;
22476;SDS011;11405;51.698;-0.292;2022-08-03T08:08:38;0.75;;;0.55;;
22476;SDS011;11405;51.698;-0.292;2022-08-03T08:11:04;1.88;;;0.60;;
22476;SDS011;11405;51.698;-0.292;2022-08-03T08:13:30;4.00;;;0.47;;
22476;SDS011;11405;51.698;-0.292;2022-08-03T08:15:56;1.23;;;0.38;;
22476;SDS011;11405;51.698;-0.292;2022-08-03T08:18:22;3.70;;;0.60;;
22476;SDS011;11405;51.698;-0.292;2022-08-03T08:20:48;4.25;;;0.63;;
22476;SDS011;11405;51.698;-0.292;2022-08-03T08:23:14;0.82;;;0.50;;
22476;SDS011;11405;51.698;-0.292;2022-08-03T08:25:46;1.38;;;0.50;;
22476;SDS011;11405;51.698;-0.292;2022-08-03T08:28:16;1.50;;;0.40;;
22476;SDS011;11405;51.698;-0.292;2022-08-03T08:30:42;5.57;;;0.50;;
22476;SDS011;11405;51.698;-0.292;2022-08-03T08:33:08;2.42;;;0.40;;
22476;SDS011;11405;51.698;-0.292;2022-08-03T08:35:34;3.35;;;0.40;;
22476;SDS011;11405;51.698;-0.292;2022-08-03T08:38:00;2.05;;;0.50;;
22476;SDS011;11405;51.698;-0.292;2022-08-03T08:40:27;1.85;;;1.02;;
22476;SDS011;11405;51.698;-0.292;2022-08-03T08:42:53;3.33;;;0.57;;
22476;SDS011;11405;51.698;-0.292;2022-08-03T08:45:19;1.40;;;0.73;;
22476;SDS011;11405;51.698;-0.292;2022-08-03T08:47:45;5.20;;;0.38;;
22476;SDS011;11405;51.698;-0.292;2022-08-03T08:50:12;0.70;;;0.20;;
22476;SDS011;11405;51.698;-0.292;2022-08-03T08:52:41;2.28;;;0.20;;
22476;SDS011;11405;51.698;-0.292;2022-08-03T08:55:08;1.75;;;0.30;;
22476;SDS011;11405;51.698;-0.292;2022-08-03T09:00:08;1.75;;;0.60;;
22476;SDS011;11405;51.698;-0.292;2022-08-03T09:02:38;2.28;;;0.30;;
22476;SDS011;11405;51.698;-0.292;2022-08-03T09:05:08;1.17;;;0.40;;
22476;SDS011;11405;51.698;-0.292;2022-08-03T09:07:35;1.35;;;0.40;;
22476;SDS011;11405;51.698;-0.292;2022-08-03T09:10:02;0.40;;;0.22;;
22476;SDS011;11405;51.698;-0.292;2022-08-03T09:12:28;0.70;;;0.50;;
22476;SDS011;11405;51.698;-0.292;2022-08-03T09:14:54;0.22;;;0.20;;
22476;SDS011;11405;51.698;-0.292;2022-08-03T09:17:20;0.10;;;0.10;;
22476;SDS011;11405;51.698;-0.292;2022-08-03T09:20:07;0.35;;;0.28;;
22476;SDS011;11405;51.698;-0.292;2022-08-03T09:22:35;0.73;;;0.30;;
22476;SDS011;11405;51.698;-0.292;2022-08-03T09:25:15;1.88;;;0.30;;
22476;SDS011;11405;51.698;-0.292;2022-08-03T09:27:42;0.20;;;0.20;;
22476;SDS011;11405;51.698;-0.292;2022-08-03T09:30:15;0.68;;;0.20;;
22476;SDS011;11405;51.698;-0.292;2022-08-03T09:32:42;1.35;;;0.60;;
22476;SDS011;11405;51.698;-0.292;2022-08-03T09:35:10;1.08;;;0.28;;
22476;SDS011;11405;51.698;-0.292;2022-08-03T09:37:37;0.10;;;0.10;;
22476;SDS011;11405;51.698;-0.292;2022-08-03T09:40:03;4.03;;;0.50;;
22476;SDS011;11405;51.698;-0.292;2022-08-03T09:42:30;0.57;;;0.40;;
22476;SDS011;11405;51.698;-0.292;2022-08-03T09:44:59;0.90;;;0.20;;
22476;SDS011;11405;51.698;-0.292;2022-08-03T09:47:26;0.70;;;0.30;;
22476;SDS011;11405;51.698;-0.292;2022-08-03T09:49:59;2.33;;;0.30;;
22476;SDS011;11405;51.698;-0.292;2022-08-03T09:52:32;2.50;;;0.32;;
22476;SDS011;11405;51.698;-0.292;2022-08-03T09:55:00;0.47;;;0.30;;
22476;SDS011;11405;51.698;-0.292;2022-08-03T09:57:27;2.13;;;0.47;;
22476;SDS011;11405;51.698;-0.292;2022-08-03T10:00:04;1.17;;;0.22;;
22476;SDS011;11405;51.698;-0.292;2022-08-03T10:02:30;2.30;;;0.32;;
22476;SDS011;11405;51.698;-0.292;2022-08-03T10:04:57;0.55;;;0.45;;
22476;SDS011;11405;51.698;-0.292;2022-08-03T10:07:23;1.45;;;0.30;;
22476;SDS011;11405;51.698;-0.292;2022-08-03T10:09:56;0.20;;;0.20;;
22476;SDS011;11405;51.698;-0.292;2022-08-03T10:12:22;1.30;;;0.38;;
22476;SDS011;11405;51.698;-0.292;2022-08-03T10:14:48;7.88;;;0.70;;
22476;SDS011;11405;51.698;-0.292;2022-08-03T10:17:15;0.50;;;0.30;;
22476;SDS011;11405;51.698;-0.292;2022-08-03T10:19:41;0.40;;;0.35;;
22476;SDS011;11405;51.698;-0.292;2022-08-03T10:22:14;1.00;;;0.43;;
22476;SDS011;11405;51.698;-0.292;2022-08-03T10:24:45;0.88;;;0.38;;
22476;SDS011;11405;51.698;-0.292;2022-08-03T10:27:12;0.90;;;0.32;;
22476;SDS011;11405;51.698;-0.292;2022-08-03T10:29:41;2.13;;;0.57;;
22476;SDS011;11405;51.698;-0.292;2022-08-03T10:32:17;0.90;;;0.38;;
22476;SDS011;11405;51.698;-0.292;2022-08-03T10:34:46;1.52;;;0.50;;
22476;SDS011;11405;51.698;-0.292;2022-08-03T10:37:16;2.22;;;0.50;;
22476;SDS011;11405;51.698;-0.292;2022-08-03T10:39:43;0.88;;;0.70;;
22476;SDS011;11405;51.698;-0.292;2022-08-03T10:42:19;1.00;;;0.50;;
22476;SDS011;11405;51.698;-0.292;2022-08-03T10:44:46;2.03;;;0.60;;
22476;SDS011;11405;51.698;-0.292;2022-08-03T10:47:13;0.93;;;0.82;;
22476;SDS011;11405;51.698;-0.292;2022-08-03T10:49:39;1.30;;;0.85;;
22476;SDS011;11405;51.698;-0.292;2022-08-03T10:54:39;2.03;;;0.52;;
22476;SDS011;11405;51.698;-0.292;2022-08-03T10:57:43;4.80;;;0.60;;
22476;SDS011;11405;51.698;-0.292;2022-08-03T11:00:10;1.27;;;0.98;;
22476;SDS011;11405;51.698;-0.292;2022-08-03T11:05:27;5.45;;;0.50;;
22476;SDS011;11405;51.698;-0.292;2022-08-03T11:10:38;1.83;;;0.82;;
22476;SDS011;11405;51.698;-0.292;2022-08-03T11:13:08;1.67;;;0.55;;
22476;SDS011;11405;51.698;-0.292;2022-08-03T11:15:35;2.25;;;0.80;;
22476;SDS011;11405;51.698;-0.292;2022-08-03T11:18:08;3.97;;;0.50;;
22476;SDS011;11405;51.698;-0.292;2022-08-03T11:20:49;3.40;;;0.32;;
22476;SDS011;11405;51.698;-0.292;2022-08-03T11:23:17;1.60;;;0.50;;
22476;SDS011;11405;51.698;-0.292;2022-08-03T11:28:29;0.80;;;0.30;;
22476;SDS011;11405;51.698;-0.292;2022-08-03T11:31:11;0.95;;;0.57;;
22476;SDS011;11405;51.698;-0.292;2022-08-03T11:33:44;0.73;;;0.38;;
22476;SDS011;11405;51.698;-0.292;2022-08-03T11:36:27;1.00;;;0.70;;
22476;SDS011;11405;51.698;-0.292;2022-08-03T11:39:12;1.42;;;0.55;;
22476;SDS011;11405;51.698;-0.292;2022-08-03T11:41:38;3.17;;;0.68;;
22476;SDS011;11405;51.698;-0.292;2022-08-03T11:44:04;1.58;;;0.50;;
22476;SDS011;11405;51.698;-0.292;2022-08-03T11:46:35;2.13;;;0.93;;
22476;SDS011;11405;51.698;-0.292;2022-08-03T11:49:05;4.95;;;0.70;;
22476;SDS011;11405;51.698;-0.292;2022-08-03T11:51:31;1.40;;;0.50;;
22476;SDS011;11405;51.698;-0.292;2022-08-03T11:56:23;1.92;;;0.50;;
22476;SDS011;11405;51.698;-0.292;2022-08-03T11:58:50;2.55;;;1.15;;
22476;SDS011;11405;51.698;-0.292;2022-08-03T12:01:17;3.13;;;1.05;;
22476;SDS011;11405;51.698;-0.292;2022-08-03T12:06:10;2.28;;;0.60;;
22476;SDS011;11405;51.698;-0.292;2022-08-03T12:08:37;5.47;;;0.57;;
22476;SDS011;11405;51.698;-0.292;2022-08-03T12:11:03;4.22;;;0.70;;
22476;SDS011;11405;51.698;-0.292;2022-08-03T12:16:02;3.38;;;0.60;;
22476;SDS011;11405;51.698;-0.292;2022-08-03T12:18:29;3.08;;;1.02;;
22476;SDS011;11405;51.698;-0.292;2022-08-03T12:21:02;2.13;;;0.40;;
22476;SDS011;11405;51.698;-0.292;2022-08-03T12:23:28;1.65;;;0.50;;
22476;SDS011;11405;51.698;-0.292;2022-08-03T12:25:59;1.02;;;0.30;;
22476;SDS011;11405;51.698;-0.292;2022-08-03T12:28:26;3.03;;;0.50;;
22476;SDS011;11405;51.698;-0.292;2022-08-03T12:30:52;3.65;;;0.60;;
22476;SDS011;11405;51.698;-0.292;2022-08-03T12:33:19;0.85;;;0.40;;
22476;SDS011;11405;51.698;-0.292;2022-08-03T12:35:46;2.08;;;0.40;;
22476;SDS011;11405;51.698;-0.292;2022-08-03T12:38:17;2.38;;;0.45;;
22476;SDS011;11405;51.698;-0.292;2022-08-03T12:40:44;3.47;;;0.68;;
22476;SDS011;11405;51.698;-0.292;2022-08-03T12:43:13;1.00;;;0.60;;
22476;SDS011;11405;51.698;-0.292;2022-08-03T12:45:39;5.07;;;0.82;;
22476;SDS011;11405;51.698;-0.292;2022-08-03T12:48:07;3.42;;;0.60;;
22476;SDS011;11405;51.698;-0.292;2022-08-03T12:50:35;7.40;;;0.52;;
22476;SDS011;11405;51.698;-0.292;2022-08-03T12:53:04;3.22;;;0.55;;
22476;SDS011;11405;51.698;-0.292;2022-08-03T12:55:30;1.65;;;0.40;;
22476;SDS011;11405;51.698;-0.292;2022-08-03T12:58:02;1.98;;;0.28;;
22476;SDS011;11405;51.698;-0.292;2022-08-03T13:00:29;1.27;;;0.35;;
22476;SDS011;11405;51.698;-0.292;2022-08-03T13:05:25;1.02;;;0.30;;
22476;SDS011;11405;51.698;-0.292;2022-08-03T13:07:51;1.80;;;0.45;;
22476;SDS011;11405;51.698;-0.292;2022-08-03T13:10:27;0.60;;;0.30;;
22476;SDS011;11405;51.698;-0.292;2022-08-03T13:12:53;3.00;;;0.40;;
22476;SDS011;11405;51.698;-0.292;2022-08-03T13:15:22;0.28;;;0.22;;
22476;SDS011;11405;51.698;-0.292;2022-08-03T13:17:50;1.83;;;0.40;;
22476;SDS011;11405;51.698;-0.292;2022-08-03T13:20:16;1.27;;;0.60;;
22476;SDS011;11405;51.698;-0.292;2022-08-03T13:22:45;8.27;;;0.70;;
22476;SDS011;11405;51.698;-0.292;2022-08-03T13:25:11;1.20;;;0.50;;
22476;SDS011;11405;51.698;-0.292;2022-08-03T13:30:03;0.55;;;0.30;;
22476;SDS011;11405;51.698;-0.292;2022-08-03T13:32:30;3.03;;;0.68;;
22476;SDS011;11405;51.698;-0.292;2022-08-03T13:34:56;6.10;;;0.52;;
22476;SDS011;11405;51.698;-0.292;2022-08-03T13:37:22;0.77;;;0.50;;
22476;SDS011;11405;51.698;-0.292;2022-08-03T13:39:48;3.35;;;1.15;;
22476;SDS011;11405;51.698;-0.292;2022-08-03T13:42:14;2.22;;;0.82;;
22476;SDS011;11405;51.698;-0.292;2022-08-03T13:44:40;4.28;;;1.05;;
22476;SDS011;11405;51.698;-0.292;2022-08-03T13:47:06;4.65;;;1.35;;
22476;SDS011;11405;51.698;-0.292;2022-08-03T13:49:32;3.47;;;1.00;;
22476;SDS011;11405;51.698;-0.292;2022-08-03T13:51:58;4.13;;;0.75;;
22476;SDS011;11405;51.698;-0.292;2022-08-03T13:54:24;3.53;;;1.00;;
22476;SDS011;11405;51.698;-0.292;2022-08-03T13:56:50;0.90;;;0.70;;
22476;SDS011;11405;51.698;-0.292;2022-08-03T13:59:20;1.35;;;0.60;;
22476;SDS011;11405;51.698;-0.292;2022-08-03T14:01:47;7.18;;;1.25;;
22476;SDS011;11405;51.698;-0.292;2022-08-03T14:04:13;1.73;;;0.80;;
22476;SDS011;11405;51.698;-0.292;2022-08-03T14:06:39;0.95;;;0.70;;
22476;SDS011;11405;51.698;-0.292;2022-08-03T14:09:05;1.67;;;1.00;;
22476;SDS011;11405;51.698;-0.292;2022-08-03T14:11:32;4.50;;;0.90;;
22476;SDS011;11405;51.698;-0.292;2022-08-03T14:13:58;1.88;;;0.85;;
22476;SDS011;11405;51.698;-0.292;2022-08-03T14:16:24;4.18;;;0.82;;
22476;SDS011;11405;51.698;-0.292;2022-08-03T14:18:50;0.93;;;0.65;;
22476;SDS011;11405;51.698;-0.292;2022-08-03T14:21:16;7.50;;;0.85;;
22476;SDS011;11405;51.698;-0.292;2022-08-03T14:23:42;3.60;;;0.63;;
22476;SDS011;11405;51.698;-0.292;2022-08-03T14:26:08;3.42;;;0.52;;
22476;SDS011;11405;51.698;-0.292;2022-08-03T14:28:35;2.97;;;0.38;;
22476;SDS011;11405;51.698;-0.292;2022-08-03T14:31:02;2.33;;;0.70;;
22476;SDS011;11405;51.698;-0.292;2022-08-03T14:33:28;3.42;;;0.50;;
22476;SDS011;11405;51.698;-0.292;2022-08-03T14:35:54;1.13;;;0.60;;
22476;SDS011;11405;51.698;-0.292;2022-08-03T14:38:20;2.45;;;1.15;;
22476;SDS011;11405;51.698;-0.292;2022-08-03T14:40:46;2.85;;;0.95;;
22476;SDS011;11405;51.698;-0.292;2022-08-03T14:43:13;2.17;;;0.88;;
22476;SDS011;11405;51.698;-0.292;2022-08-03T14:45:40;0.75;;;0.52;;
22476;SDS011;11405;51.698;-0.292;2022-08-03T14:48:06;2.90;;;0.80;;
22476;SDS011;11405;51.698;-0.292;2022-08-03T14:50:33;2.03;;;0.55;;
22476;SDS011;11405;51.698;-0.292;2022-08-03T14:52:59;3.58;;;0.40;;
22476;SDS011;11405;51.698;-0.292;2022-08-03T14:55:25;1.33;;;0.43;;
22476;SDS011;11405;51.698;-0.292;2022-08-03T14:57:51;0.65;;;0.30;;
22476;SDS011;11405;51.698;-0.292;2022-08-03T15:00:17;1.60;;;0.55;;
22476;SDS011;11405;51.698;-0.292;2022-08-03T15:02:43;2.95;;;0.38;;
22476;SDS011;11405;51.698;-0.292;2022-08-03T15:05:10;0.95;;;0.47;;
22476;SDS011;11405;51.698;-0.292;2022-08-03T15:10:02;2.10;;;0.55;;
22476;SDS011;11405;51.698;-0.292;2022-08-03T15:12:28;1.83;;;0.50;;
22476;SDS011;11405;51.698;-0.292;2022-08-03T15:14:54;1.38;;;0.40;;
22476;SDS011;11405;51.698;-0.292;2022-08-03T15:17:20;1.98;;;0.52;;
22476;SDS011;11405;51.698;-0.292;2022-08-03T15:19:46;0.40;;;0.40;;
22476;SDS011;11405;51.698;-0.292;2022-08-03T15:22:12;2.97;;;0.57;;
22476;SDS011;11405;51.698;-0.292;2022-08-03T15:24:40;2.05;;;0.55;;
22476;SDS011;11405;51.698;-0.292;2022-08-03T15:27:06;2.15;;;0.50;;
22476;SDS011;11405;51.698;-0.292;2022-08-03T15:29:32;2.70;;;0.45;;